Gaziantep, Turkey
Current Conditions -  °F | °C
As of 4:50 PM on Saturday 22 Nov 2014 (Local Time) from LTAJ Reporting Station
Broken Clouds Broken Clouds  
Wind Chill: 54°   Ceiling: 10000
Heat Index: 54°   Visibility: 6mi
Dew Point: 39°   Wind: 9mph
Humidity: 58%   Direction: 310°NW
Pressure: 29.83"   Gusts: NA
Location:  37.07°N, 37.39°E
Report Text: LTAJ 221350Z 31008KT 280V350 9999 SCT040 BKN100 12/04 Q1010 NOSIG
Loading
Personal Weather Stations






























Interactive Weather Map New forecast layout! Learn more

10-Day Weather Forecast

Advertisements
Track Severe Weather on mobile